Accueil
METAR-TAF:

METAR-TAF

Aéroports :

Gibraltar, Gibraltar

Aéroport international de Gibraltar

latitude: 36-09N, longitude: 005-21W, altitude: 5 m

Observation

Le bulletin a été fait il y a 40 minutes, à 02:50 UTC
Vent 1 kt de est
Température 11°C
Humidité 87%
Pression 1016 hPa
Visibilité 10 km ou plus

METAR: LXGB 260250Z AUTO 08001KT 9999 // NCD 11/09 Q1016

Heure: 05:30 (03:30 UTC)

Prévision

Le bulletin a été fait il y a 11 heures et 4 minutes, à 16:26 UTC
Prévision valable du 25 à 18 UTC au 25 à 22 UTC
Vent 10 kt de sud-est
Visibilité 10 km ou plus
Quelques nuages à une hauteur de 4000 ft
Nuages épars à une hauteur de 6000 ft

TAF: LXGB 251626Z 2518/2522 13010KT 9999 FEW040 SCT060

Observations et prévisions météorologiques de plus de 4000 aéroports (messages METAR et TAF).

Les stations disponibles sont représentées par des disques jaunes et rouges sur la carte.

Passer la souris dessus pour voir le nom de la station.

Cliquer dessus pour voir les observations et prévisions météorologiques.

Pour changer de carte: cliquez sur les boutons verts avec une croix noire pour zoomer, sur le bouton vert avec un tiret pour effectuer un zoom arrière, ou sur les flèches vertes pour les cartes adjacentes.


METAR-TAF: